Terminal Aerodrome Forecast
Issued by NWS

Home | Current Version | Previous Version | Text Only | Print | Product List | Glossary On
Versions: 1 2 3 4 5 6 7 8 9 10 11 12 13
534
FTUS43 KGRB 181616 AAA
TAFMTW
TAF AMD
KMTW 181616Z 1816/1912 19016G20KT P6SM SKC
     FM182200 21013G20KT P6SM SKC WS020/25045KT
     FM190500 24011KT P6SM SCT250 WS020/25055KT
     FM190900 26008KT P6SM SKC=

USA.gov is the U.S. government's official web portal to all federal, state and local government web resources and services.